Terminal Aerodrome Forecast
Issued by NWS Grand Forks, ND

Home | Current Version | Previous Version | Text Only | Print | Product List | Glossary Off
Versions: 1 2 3 4 5 6 7 8 9 10 11 12 13 14 15 16

458
FTUS43 KFGF 240520
TAFGFK
TAF
KGFK 240520Z 2406/2506 VRB06KT P6SM SKC
     FM241500 29013KT P6SM FEW250
     FM250000 31009KT P6SM SCT250=

USA.gov is the U.S. government's official web portal to all federal, state and local government web resources and services.